Terminal Aerodrome Forecast
Issued by NWS Newport/Morehead City, NC

Home | Current Version | Previous Version | Graphics & Text | Print | Product List | Glossary On
Versions: 1 2 3 4 5 6 7 8 9 10 11 12 13
000
FTUS42 KMHX 250905 AAA
TAFEWN
TAF AMD
KEWN 250905Z 2509/2606 22010KT P6SM SCT025 OVC050
     FM251100 21010G15KT P6SM SCT020 BKN250
     FM251500 22010G15KT P6SM SCT050
     FM252000 23015G25KT P6SM SCT250
     FM260300 24010KT P6SM SCT050=

USA.gov is the U.S. government's official web portal to all federal, state and local government web resources and services.